Terminal Aerodrome Forecast
Issued by NWS Cleveland, OH

Home | Current Version | Previous Version | Graphics & Text | Print | Product List | Glossary On
Versions: 1 2 3 4 5 6 7 8 9 10 11 12 13 14 15 16 17 18 19 20 21 22
000
FTUS41 KCLE 252000 AAB
TAFCAK
TAF AMD
KCAK 252023Z 2520/2618 27022G32KT P6SM SCT025 BKN035 OVC050
      TEMPO 2520/2524 BKN025
     FM260000 25007KT P6SM SCT030 BKN200
     FM260600 VRB03KT 3SM BR SCT015 BKN120
     FM261100 03004KT 4SM -SHRA BR BKN009 OVC020=

USA.gov is the U.S. government's official web portal to all federal, state and local government web resources and services.